Time;durP1;ratioP1;P1;durP2;ratioP2;P2;SDS_P1;SDS_P2;PMS_P1;PMS_P2;Temp;Humidity;BMP_temperature;BMP_pressure;BME280_temperature;BME280_humidity;BME280_pressure;Samples;Min_cycle;Max_cycle;Signal;HPM_P1;HPM_P2
2021/03/28 00:01:37;;;;;;;;;;;5.10;99.90;;;;;;5071743;28;19924;-64
2021/03/28 00:04:06;;;;;;;;;;;5.10;99.90;;;;;;5071497;28;19924;-64
2021/03/28 00:06:33;;;;;;;;;;;5.10;99.90;;;;;;5071889;28;20343;-64
2021/03/28 00:09:06;;;;;;;;;;;5.10;99.90;;;;;;5071791;28;19924;-64
2021/03/28 00:11:32;;;;;;;;;;;5.20;99.90;;;;;;5071752;28;19924;-64
2021/03/28 00:14:00;;;;;;;;;;;5.20;99.90;;;;;;5071431;28;19925;-64
2021/03/28 00:16:27;;;;;;;;;;;5.30;99.90;;;;;;5071441;28;19939;-65
2021/03/28 00:19:01;;;;;;;;;;;5.30;99.90;;;;;;5072112;28;19925;-64
2021/03/28 00:21:29;;;;;;;;;;;5.30;99.90;;;;;;5071468;28;19946;-66
2021/03/28 00:23:57;;;;;;;;;;;5.30;99.90;;;;;;5074304;28;19931;-64
2021/03/28 00:26:26;;;;;;;;;;;5.30;99.90;;;;;;5075015;28;19924;-64
2021/03/28 00:29:03;;;;;;;;;;;5.30;99.90;;;;;;5075736;28;19932;-64
2021/03/28 00:31:30;;;;;;;;;;;5.30;99.90;;;;;;5075212;28;20377;-64
2021/03/28 00:33:59;;;;;;;;;;;5.40;99.90;;;;;;5075088;28;19970;-64
2021/03/28 00:36:29;;;;;;;;;;;5.40;99.90;;;;;;5075253;28;19924;-64
2021/03/28 00:38:56;;;;;;;;;;;5.40;99.90;;;;;;5075061;28;19970;-65
2021/03/28 00:41:24;;;;;;;;;;;5.40;99.90;;;;;;5075305;28;19924;-63
2021/03/28 00:44:05;;;;;;;;;;;5.40;99.90;;;;;;5074860;28;19929;-64
2021/03/28 00:46:36;;;;;;;;;;;5.50;99.90;;;;;;5075186;28;19924;-63
2021/03/28 00:49:03;;;;;;;;;;;5.50;99.90;;;;;;5074999;28;19924;-64
2021/03/28 00:51:30;;;;;;;;;;;5.50;99.90;;;;;;5074686;28;20418;-64
2021/03/28 00:53:57;;;;;;;;;;;5.50;99.90;;;;;;5074926;28;19966;-63
2021/03/28 00:56:26;;;;;;;;;;;5.50;99.90;;;;;;5074715;28;19932;-64
2021/03/28 00:58:56;;;;;;;;;;;5.40;99.90;;;;;;5075024;28;19932;-63
2021/03/28 01:01:28;;;;;;;;;;;5.40;99.90;;;;;;5074570;28;20439;-63
2021/03/28 01:04:24;;;;;;;;;;;5.40;99.90;;;;;;5074573;28;20368;-64
2021/03/28 01:06:52;;;;;;;;;;;5.30;99.90;;;;;;5074733;28;19935;-63
2021/03/28 01:09:25;;;;;;;;;;;5.30;99.90;;;;;;5074757;28;20400;-64
2021/03/28 01:11:58;;;;;;;;;;;5.30;99.90;;;;;;5074479;28;19936;-64
2021/03/28 01:14:41;;;;;;;;;;;5.30;99.90;;;;;;5074515;28;19925;-65
2021/03/28 01:17:19;;;;;;;;;;;5.30;99.90;;;;;;5074402;28;19931;-65
2021/03/28 01:20:12;;;;;;;;;;;5.40;99.90;;;;;;5074678;28;19925;-64
2021/03/28 01:22:44;;;;;;;;;;;5.40;99.90;;;;;;5074375;28;19924;-64
2021/03/28 01:25:18;;;;;;;;;;;5.40;99.90;;;;;;5074116;28;19939;-64
2021/03/28 01:27:49;;;;;;;;;;;5.50;99.90;;;;;;5074327;28;20377;-64
2021/03/28 01:30:16;;;;;;;;;;;5.50;99.90;;;;;;5074389;28;19924;-64
2021/03/28 01:32:44;;;;;;;;;;;5.50;99.90;;;;;;5074153;28;19924;-64
2021/03/28 01:35:15;;;;;;;;;;;5.50;99.90;;;;;;5072932;28;19932;-65
2021/03/28 01:37:44;;;;;;;;;;;5.50;99.90;;;;;;5074408;28;19932;-65
2021/03/28 01:40:11;;;;;;;;;;;5.50;99.90;;;;;;5073952;28;20397;-65
2021/03/28 01:42:51;;;;;;;;;;;5.40;99.90;;;;;;5074366;28;19925;-66
2021/03/28 01:45:21;;;;;;;;;;;5.50;99.90;;;;;;5074091;28;19924;-64
2021/03/28 01:47:55;;;;;;;;;;;5.50;99.90;;;;;;5073563;28;19924;-66
2021/03/28 01:50:32;;;;;;;;;;;5.50;99.90;;;;;;5074448;28;19924;-65
2021/03/28 01:53:08;;;;;;;;;;;5.60;99.90;;;;;;5073761;28;19924;-64
2021/03/28 01:55:37;;;;;;;;;;;5.60;99.90;;;;;;5074156;28;19931;-64
2021/03/28 01:58:12;;;;;;;;;;;5.60;99.90;;;;;;5073599;28;19925;-64
2021/03/28 02:00:42;;;;;;;;;;;5.60;99.90;;;;;;5073951;28;20355;-64
2021/03/28 02:03:15;;;;;;;;;;;5.60;99.90;;;;;;5073698;28;19948;-64
2021/03/28 02:05:46;;;;;;;;;;;5.70;99.90;;;;;;5073544;28;20365;-63
2021/03/28 02:08:17;;;;;;;;;;;5.70;99.90;;;;;;5073774;28;19924;-62
2021/03/28 02:10:51;;;;;;;;;;;5.70;99.90;;;;;;5073402;28;19928;-63
2021/03/28 02:13:23;;;;;;;;;;;5.70;99.90;;;;;;5073370;28;19978;-63
2021/03/28 02:16:03;;;;;;;;;;;5.70;99.90;;;;;;5073341;28;19925;-64
2021/03/28 02:18:38;;;;;;;;;;;5.80;99.90;;;;;;5073224;28;20443;-63
2021/03/28 02:21:09;;;;;;;;;;;5.80;99.90;;;;;;5073026;28;19947;-63
2021/03/28 02:23:41;;;;;;;;;;;5.80;99.90;;;;;;5072973;28;19925;-63
2021/03/28 02:26:17;;;;;;;;;;;5.80;99.90;;;;;;5073169;28;19978;-64
2021/03/28 02:28:50;;;;;;;;;;;5.80;99.90;;;;;;5073310;28;19924;-64
2021/03/28 02:31:21;;;;;;;;;;;5.80;99.90;;;;;;5072942;28;19970;-64
2021/03/28 02:33:50;;;;;;;;;;;5.80;99.90;;;;;;5072833;28;19964;-63
2021/03/28 02:36:23;;;;;;;;;;;5.80;99.90;;;;;;5073380;28;19925;-63
2021/03/28 02:39:07;;;;;;;;;;;5.80;99.90;;;;;;5073180;28;19924;-63
2021/03/28 02:41:41;;;;;;;;;;;5.80;99.90;;;;;;5073040;28;19924;-63
2021/03/28 02:44:23;;;;;;;;;;;5.80;99.90;;;;;;5072766;28;19924;-63
2021/03/28 02:46:52;;;;;;;;;;;5.80;99.90;;;;;;5073212;28;19924;-64
2021/03/28 02:49:33;;;;;;;;;;;5.80;99.90;;;;;;5072838;28;19978;-64
2021/03/28 02:52:19;;;;;;;;;;;5.80;99.90;;;;;;5070866;28;19947;-64
2021/03/28 02:55:07;;;;;;;;;;;5.80;99.90;;;;;;5072575;28;19924;-63
2021/03/28 02:57:38;;;;;;;;;;;5.80;99.90;;;;;;5072673;28;19932;-64
2021/03/28 03:00:11;;;;;;;;;;;5.90;99.90;;;;;;5072757;28;19932;-63
2021/03/28 03:02:46;;;;;;;;;;;5.90;99.90;;;;;;5072254;28;20294;-64
2021/03/28 03:05:20;;;;;;;;;;;5.90;99.90;;;;;;5072367;28;19971;-64
2021/03/28 03:07:53;;;;;;;;;;;5.90;99.90;;;;;;5072587;28;19924;-64
2021/03/28 03:10:37;;;;;;;;;;;5.90;99.90;;;;;;5072491;28;19925;-64
2021/03/28 03:13:08;;;;;;;;;;;5.90;99.90;;;;;;5072357;28;19944;-63
2021/03/28 03:15:37;;;;;;;;;;;5.90;99.90;;;;;;5072233;28;19928;-63
2021/03/28 03:18:21;;;;;;;;;;;5.80;99.90;;;;;;5072661;28;19941;-64
2021/03/28 03:21:05;;;;;;;;;;;5.80;99.90;;;;;;5065505;28;19950;-63
2021/03/28 03:23:49;;;;;;;;;;;5.80;99.90;;;;;;5071819;28;19924;-63
2021/03/28 03:26:36;;;;;;;;;;;5.70;99.90;;;;;;5072464;28;19995;-63
2021/03/28 03:29:13;;;;;;;;;;;5.70;99.90;;;;;;5054639;28;19944;-65
2021/03/28 03:31:46;;;;;;;;;;;5.70;99.90;;;;;;5073270;28;19925;-64
2021/03/28 03:34:24;;;;;;;;;;;5.80;99.90;;;;;;5072952;28;19925;-65
2021/03/28 03:37:11;;;;;;;;;;;5.80;99.90;;;;;;5071911;28;20412;-63
2021/03/28 03:39:49;;;;;;;;;;;5.80;99.90;;;;;;5055264;28;19931;-64
2021/03/28 03:42:20;;;;;;;;;;;5.90;99.90;;;;;;5072674;28;19943;-64
2021/03/28 03:45:10;;;;;;;;;;;5.90;99.90;;;;;;5072488;28;19924;-63
2021/03/28 03:47:39;;;;;;;;;;;5.90;99.90;;;;;;5061166;28;19966;-63
2021/03/28 03:50:13;;;;;;;;;;;5.90;99.90;;;;;;5072019;28;19924;-63
2021/03/28 03:52:59;;;;;;;;;;;5.90;99.90;;;;;;5072010;28;19954;-64
2021/03/28 03:55:29;;;;;;;;;;;5.90;99.90;;;;;;5071896;28;19932;-63
2021/03/28 03:58:00;;;;;;;;;;;5.90;99.90;;;;;;5073056;28;19931;-65
2021/03/28 04:00:27;;;;;;;;;;;5.90;99.90;;;;;;5076074;28;19924;-64
2021/03/28 04:02:56;;;;;;;;;;;5.90;99.90;;;;;;5075955;28;19931;-63
2021/03/28 04:05:32;;;;;;;;;;;5.90;99.90;;;;;;5075250;28;19933;-63
2021/03/28 04:08:05;;;;;;;;;;;5.90;99.90;;;;;;5075934;28;19925;-63
2021/03/28 04:10:37;;;;;;;;;;;5.90;99.90;;;;;;5075650;28;20439;-64
2021/03/28 04:13:21;;;;;;;;;;;6.00;99.90;;;;;;5075893;28;19924;-64
2021/03/28 04:15:58;;;;;;;;;;;6.00;99.90;;;;;;5075230;28;19931;-64
2021/03/28 04:18:54;;;;;;;;;;;5.90;99.90;;;;;;5075558;28;19925;-64
2021/03/28 04:21:29;;;;;;;;;;;5.90;99.90;;;;;;5033077;28;19933;-64
2021/03/28 04:24:02;;;;;;;;;;;6.00;99.90;;;;;;5067391;28;19924;-64
2021/03/28 04:26:38;;;;;;;;;;;5.90;99.90;;;;;;5075871;28;19932;-64
2021/03/28 04:29:05;;;;;;;;;;;5.90;99.90;;;;;;5075558;28;19932;-64
2021/03/28 04:31:43;;;;;;;;;;;5.90;99.90;;;;;;5075462;28;20340;-63
2021/03/28 04:34:13;;;;;;;;;;;5.90;99.90;;;;;;5074975;28;19932;-63
2021/03/28 04:36:42;;;;;;;;;;;5.90;99.90;;;;;;5075201;28;19948;-63
2021/03/28 04:39:16;;;;;;;;;;;5.90;99.90;;;;;;5075092;28;19932;-64
2021/03/28 04:42:04;;;;;;;;;;;5.90;99.90;;;;;;5075289;28;19924;-64
2021/03/28 04:44:57;;;;;;;;;;;5.90;99.90;;;;;;5074679;28;19928;-63
2021/03/28 04:47:30;;;;;;;;;;;5.90;99.90;;;;;;5050648;28;19931;-63
2021/03/28 04:50:13;;;;;;;;;;;5.90;99.90;;;;;;5075036;28;19932;-63
2021/03/28 04:53:02;;;;;;;;;;;5.90;99.90;;;;;;5074832;28;19932;-64
2021/03/28 04:55:49;;;;;;;;;;;6.00;99.90;;;;;;5074707;28;19982;-64
2021/03/28 04:58:24;;;;;;;;;;;6.00;99.90;;;;;;5075089;28;19924;-64
2021/03/28 05:01:11;;;;;;;;;;;6.10;99.90;;;;;;5074691;28;19935;-64
2021/03/28 05:03:53;;;;;;;;;;;6.10;99.90;;;;;;5074402;28;19925;-64
2021/03/28 05:06:46;;;;;;;;;;;6.10;99.90;;;;;;5074677;28;20305;-64
2021/03/28 05:09:23;;;;;;;;;;;6.10;99.90;;;;;;5049109;28;19932;-63
2021/03/28 05:12:19;;;;;;;;;;;6.20;99.90;;;;;;5074702;28;19931;-63
2021/03/28 05:15:01;;;;;;;;;;;6.30;99.90;;;;;;5074493;28;19925;-63
2021/03/28 05:17:42;;;;;;;;;;;6.30;99.90;;;;;;5074650;28;19971;-63
2021/03/28 05:20:32;;;;;;;;;;;6.30;99.90;;;;;;5074433;28;19925;-63
2021/03/28 05:23:12;;;;;;;;;;;6.30;99.90;;;;;;5063851;28;19932;-64
2021/03/28 05:25:50;;;;;;;;;;;6.30;99.90;;;;;;5073897;28;20373;-64
2021/03/28 05:28:34;;;;;;;;;;;6.30;99.90;;;;;;5074477;28;20305;-63
2021/03/28 05:31:22;;;;;;;;;;;6.40;99.90;;;;;;5074364;28;19955;-63
2021/03/28 05:34:21;;;;;;;;;;;6.50;99.90;;;;;;5074177;28;19929;-63
2021/03/28 05:36:56;;;;;;;;;;;6.50;99.90;;;;;;5074057;28;19928;-63
2021/03/28 05:39:34;;;;;;;;;;;6.40;99.90;;;;;;5074446;28;19925;-64
2021/03/28 05:42:14;;;;;;;;;;;6.50;99.90;;;;;;5074172;28;19973;-63
2021/03/28 05:44:54;;;;;;;;;;;6.40;99.90;;;;;;5073734;28;19932;-64
2021/03/28 05:47:29;;;;;;;;;;;6.50;99.90;;;;;;5073786;28;19928;-63
2021/03/28 05:49:59;;;;;;;;;;;6.50;99.90;;;;;;5074247;28;19931;-63
2021/03/28 05:52:44;;;;;;;;;;;6.50;99.90;;;;;;5074186;28;20014;-63
2021/03/28 05:55:26;;;;;;;;;;;6.50;99.90;;;;;;5073769;28;19931;-64
2021/03/28 05:58:10;;;;;;;;;;;6.50;99.90;;;;;;5073789;28;20346;-63
2021/03/28 06:00:46;;;;;;;;;;;6.60;99.90;;;;;;5073892;28;20343;-63
2021/03/28 06:03:31;;;;;;;;;;;6.60;99.90;;;;;;5073958;28;19975;-63
2021/03/28 06:06:12;;;;;;;;;;;6.60;99.90;;;;;;5073631;28;19925;-63
2021/03/28 06:09:05;;;;;;;;;;;6.70;99.90;;;;;;5073918;28;19932;-65
2021/03/28 06:11:41;;;;;;;;;;;6.70;99.90;;;;;;5073166;28;19964;-63
2021/03/28 06:14:21;;;;;;;;;;;6.80;99.90;;;;;;5073187;28;19924;-64
2021/03/28 06:16:56;;;;;;;;;;;6.80;99.90;;;;;;5073035;28;19928;-63
2021/03/28 06:19:43;;;;;;;;;;;6.90;99.90;;;;;;5073554;28;19939;-63
2021/03/28 06:22:28;;;;;;;;;;;6.90;99.90;;;;;;5072949;28;19953;-63
2021/03/28 06:25:09;;;;;;;;;;;7.00;99.90;;;;;;5072770;28;19970;-63
2021/03/28 06:27:55;;;;;;;;;;;7.10;99.90;;;;;;5071056;28;19928;-63
2021/03/28 06:30:34;;;;;;;;;;;7.10;99.90;;;;;;5072519;28;21294;-64
2021/03/28 06:33:15;;;;;;;;;;;7.20;99.90;;;;;;5072689;28;19928;-63
2021/03/28 06:36:12;;;;;;;;;;;7.20;99.90;;;;;;5072827;28;19970;-64
2021/03/28 06:38:53;;;;;;;;;;;7.30;99.90;;;;;;5069738;28;20407;-65
2021/03/28 06:41:29;;;;;;;;;;;7.30;99.90;;;;;;5077734;28;19931;-64
2021/03/28 06:44:13;;;;;;;;;;;7.40;99.90;;;;;;5093307;28;20377;-63
2021/03/28 06:46:52;;;;;;;;;;;7.40;99.90;;;;;;5093082;28;20399;-65
2021/03/28 06:49:37;;;;;;;;;;;7.40;99.90;;;;;;5092797;28;19930;-63
2021/03/28 06:52:12;;;;;;;;;;;7.50;99.90;;;;;;5092320;28;20002;-64
2021/03/28 06:54:59;;;;;;;;;;;7.50;99.90;;;;;;5092666;28;19986;-64
2021/03/28 06:57:46;;;;;;;;;;;7.50;99.90;;;;;;5092680;28;19925;-66
2021/03/28 07:00:19;;;;;;;;;;;7.50;99.90;;;;;;5092833;28;20022;-61
2021/03/28 07:03:06;;;;;;;;;;;7.50;99.90;;;;;;5092989;28;19928;-64
2021/03/28 07:05:40;;;;;;;;;;;7.50;99.90;;;;;;5092462;28;19924;-64
2021/03/28 07:08:27;;;;;;;;;;;7.50;99.90;;;;;;5092711;28;19928;-64
2021/03/28 07:10:56;;;;;;;;;;;7.60;99.90;;;;;;5092615;28;19931;-63
2021/03/28 07:13:40;;;;;;;;;;;7.60;99.90;;;;;;5093025;28;19947;-64
2021/03/28 07:16:30;;;;;;;;;;;7.70;99.90;;;;;;5092482;28;19924;-64
2021/03/28 07:19:20;;;;;;;;;;;7.80;99.90;;;;;;5092479;28;20308;-64
2021/03/28 07:21:57;;;;;;;;;;;7.80;99.90;;;;;;5092469;28;19924;-64
2021/03/28 07:24:50;;;;;;;;;;;7.90;99.90;;;;;;5083407;28;19934;-64
2021/03/28 07:27:34;;;;;;;;;;;8.00;99.90;;;;;;5091422;28;19924;-63
2021/03/28 07:30:19;;;;;;;;;;;8.10;99.90;;;;;;5092350;28;19994;-64
2021/03/28 07:33:00;;;;;;;;;;;8.10;99.90;;;;;;5092904;28;19924;-64
2021/03/28 07:35:37;;;;;;;;;;;8.20;99.90;;;;;;5092255;28;20300;-64
2021/03/28 07:38:29;;;;;;;;;;;8.30;99.90;;;;;;5092001;28;19927;-63
2021/03/28 07:41:06;;;;;;;;;;;8.40;99.90;;;;;;5093796;28;19946;-64
2021/03/28 07:43:47;;;;;;;;;;;8.40;99.90;;;;;;5093906;28;20305;-64
2021/03/28 07:46:19;;;;;;;;;;;8.50;99.90;;;;;;5091657;28;19924;-63
2021/03/28 07:49:04;;;;;;;;;;;8.60;99.90;;;;;;5091978;28;19924;-64
2021/03/28 07:51:45;;;;;;;;;;;8.60;99.90;;;;;;5091940;28;19928;-64
2021/03/28 07:54:26;;;;;;;;;;;8.70;99.90;;;;;;5091669;28;20338;-64
2021/03/28 07:57:15;;;;;;;;;;;8.70;99.90;;;;;;5092098;28;19928;-64
2021/03/28 07:59:51;;;;;;;;;;;8.80;99.90;;;;;;5092166;28;19924;-65
2021/03/28 08:02:28;;;;;;;;;;;8.90;99.90;;;;;;5091884;28;19947;-65
2021/03/28 08:05:15;;;;;;;;;;;8.90;99.90;;;;;;5091315;28;19924;-64
2021/03/28 08:07:55;;;;;;;;;;;9.00;99.90;;;;;;5092054;28;19924;-65
2021/03/28 08:10:29;;;;;;;;;;;9.10;99.90;;;;;;5091899;28;19932;-65
2021/03/28 08:13:01;;;;;;;;;;;9.20;99.90;;;;;;5091732;28;19932;-65
2021/03/28 08:15:45;;;;;;;;;;;9.30;99.90;;;;;;5091232;28;19924;-65
2021/03/28 08:18:35;;;;;;;;;;;9.40;99.90;;;;;;5091998;28;19924;-65
2021/03/28 08:21:34;;;;;;;;;;;9.50;99.90;;;;;;5075900;28;19977;-65
2021/03/28 08:24:24;;;;;;;;;;;9.60;99.90;;;;;;5028769;28;19925;-65
2021/03/28 08:27:06;;;;;;;;;;;9.70;99.90;;;;;;5029619;28;19925;-64
2021/03/28 08:29:40;;;;;;;;;;;9.80;99.90;;;;;;5073871;28;19978;-65
2021/03/28 08:32:28;;;;;;;;;;;9.90;99.90;;;;;;5091288;28;20403;-64
2021/03/28 08:35:06;;;;;;;;;;;10.00;99.90;;;;;;5065005;28;19969;-64
2021/03/28 08:37:52;;;;;;;;;;;10.00;99.90;;;;;;5091641;28;19932;-65
2021/03/28 08:40:33;;;;;;;;;;;10.10;99.90;;;;;;5091371;28;19928;-65
2021/03/28 08:43:18;;;;;;;;;;;10.20;99.90;;;;;;5091483;28;19928;-64
2021/03/28 08:46:17;;;;;;;;;;;10.20;99.90;;;;;;5095080;28;19924;-64
2021/03/28 08:48:50;;;;;;;;;;;10.30;99.90;;;;;;5032153;28;20055;-65
2021/03/28 08:51:24;;;;;;;;;;;10.40;99.90;;;;;;5032656;28;19925;-63
2021/03/28 08:53:54;;;;;;;;;;;10.50;99.90;;;;;;5065762;28;19971;-62
2021/03/28 08:56:51;;;;;;;;;;;10.60;99.90;;;;;;5094927;28;20467;-63
2021/03/28 08:59:26;;;;;;;;;;;10.60;99.90;;;;;;5094963;28;19928;-62
2021/03/28 09:01:54;;;;;;;;;;;10.70;99.90;;;;;;5094998;28;20377;-64
2021/03/28 09:04:25;;;;;;;;;;;10.70;99.90;;;;;;5094450;28;20316;-64
2021/03/28 09:06:56;;;;;;;;;;;10.70;99.90;;;;;;5094520;28;19947;-64
2021/03/28 09:09:30;;;;;;;;;;;10.60;99.90;;;;;;5094387;28;19928;-65
2021/03/28 09:12:00;;;;;;;;;;;10.60;99.90;;;;;;5094489;28;19928;-64
2021/03/28 09:14:40;;;;;;;;;;;10.60;99.90;;;;;;5094119;28;19932;-64
2021/03/28 09:17:13;;;;;;;;;;;10.70;99.90;;;;;;5081336;28;19932;-66
2021/03/28 09:19:57;;;;;;;;;;;10.90;99.90;;;;;;5094575;28;19928;-65
2021/03/28 09:22:28;;;;;;;;;;;11.10;99.90;;;;;;5094536;28;20339;-65
2021/03/28 09:24:58;;;;;;;;;;;11.30;99.90;;;;;;5093863;28;19931;-64
2021/03/28 09:27:31;;;;;;;;;;;11.30;99.90;;;;;;5094184;28;19924;-65
2021/03/28 09:30:19;;;;;;;;;;;11.40;99.90;;;;;;5094152;28;20369;-64
2021/03/28 09:32:53;;;;;;;;;;;11.40;99.90;;;;;;5094431;28;19928;-65
2021/03/28 09:35:48;;;;;;;;;;;11.40;99.90;;;;;;5093293;28;20559;-64
2021/03/28 09:38:30;;;;;;;;;;;11.50;99.90;;;;;;5094203;28;19947;-64
2021/03/28 09:40:59;;;;;;;;;;;11.70;99.90;;;;;;5093955;28;19932;-63
2021/03/28 09:43:32;;;;;;;;;;;11.60;99.90;;;;;;5094152;28;20422;-63
2021/03/28 09:46:21;;;;;;;;;;;11.70;99.90;;;;;;5093777;28;19924;-64
2021/03/28 09:49:04;;;;;;;;;;;11.80;99.90;;;;;;5078101;28;19924;-63
2021/03/28 09:51:45;;;;;;;;;;;11.90;99.90;;;;;;5094072;28;19928;-63
2021/03/28 09:54:16;;;;;;;;;;;12.10;99.90;;;;;;5093481;28;19924;-63
2021/03/28 09:56:54;;;;;;;;;;;12.10;99.90;;;;;;5093344;28;19924;-63
2021/03/28 09:59:38;;;;;;;;;;;12.20;99.90;;;;;;5093584;28;19928;-63
2021/03/28 10:02:18;;;;;;;;;;;12.20;99.90;;;;;;5083065;28;19924;-63
2021/03/28 10:05:02;;;;;;;;;;;12.20;99.90;;;;;;5093181;28;19924;-64
2021/03/28 10:07:33;;;;;;;;;;;12.40;99.90;;;;;;5093518;28;19977;-63
2021/03/28 10:10:08;;;;;;;;;;;12.50;99.90;;;;;;5093498;28;19931;-63
2021/03/28 10:12:36;;;;;;;;;;;12.80;99.90;;;;;;5093427;28;20284;-63
2021/03/28 10:15:05;;;;;;;;;;;12.90;99.90;;;;;;5092969;28;20304;-64
2021/03/28 10:17:39;;;;;;;;;;;12.80;99.90;;;;;;5093266;28;19927;-62
2021/03/28 10:20:17;;;;;;;;;;;12.70;99.90;;;;;;5093473;28;20309;-63
2021/03/28 10:22:47;;;;;;;;;;;12.90;99.90;;;;;;5093535;28;19924;-66
2021/03/28 10:25:32;;;;;;;;;;;12.90;99.90;;;;;;5092816;28;20445;-66
2021/03/28 10:28:13;;;;;;;;;;;13.10;99.90;;;;;;5093738;28;19924;-69
2021/03/28 10:30:45;;;;;;;;;;;13.20;99.90;;;;;;5092895;28;20392;-65
2021/03/28 10:33:26;;;;;;;;;;;13.20;99.90;;;;;;5093641;28;19924;-63
2021/03/28 10:36:04;;;;;;;;;;;13.10;99.90;;;;;;5092623;28;19924;-64
2021/03/28 10:38:37;;;;;;;;;;;13.30;99.90;;;;;;5093155;28;19932;-65
2021/03/28 10:41:10;;;;;;;;;;;13.40;99.90;;;;;;5092790;28;20359;-65
2021/03/28 10:43:50;;;;;;;;;;;13.50;99.90;;;;;;5092951;28;19931;-66
2021/03/28 10:46:37;;;;;;;;;;;13.30;99.90;;;;;;5092544;28;20339;-66
2021/03/28 10:49:16;;;;;;;;;;;13.40;99.90;;;;;;5092892;28;19934;-67
2021/03/28 10:51:56;;;;;;;;;;;13.60;99.90;;;;;;5092586;28;19928;-66
2021/03/28 10:54:41;;;;;;;;;;;14.00;99.90;;;;;;5092492;28;19928;-66
2021/03/28 10:57:25;;;;;;;;;;;14.10;99.90;;;;;;5092406;28;20463;-66
2021/03/28 11:00:05;;;;;;;;;;;14.00;99.90;;;;;;5092242;28;19977;-66
2021/03/28 11:03:01;;;;;;;;;;;14.00;99.90;;;;;;5092732;28;19947;-66
2021/03/28 11:05:42;;;;;;;;;;;13.90;99.90;;;;;;5091964;28;20304;-66
2021/03/28 11:08:21;;;;;;;;;;;13.50;99.90;;;;;;5091550;28;19928;-67
2021/03/28 11:10:57;;;;;;;;;;;13.70;99.90;;;;;;5092441;28;19936;-67
2021/03/28 11:13:39;;;;;;;;;;;13.70;99.90;;;;;;5092861;28;19990;-67
2021/03/28 11:16:18;;;;;;;;;;;13.80;99.90;;;;;;5092007;28;19924;-67
2021/03/28 11:19:09;;;;;;;;;;;14.00;99.90;;;;;;5092316;28;19931;-67
2021/03/28 11:21:37;;;;;;;;;;;14.00;99.90;;;;;;5092709;28;19924;-67
2021/03/28 11:24:10;;;;;;;;;;;14.20;99.90;;;;;;5092441;28;20305;-67
2021/03/28 11:26:51;;;;;;;;;;;14.20;99.90;;;;;;5092730;28;19931;-68
2021/03/28 11:29:29;;;;;;;;;;;14.20;99.90;;;;;;5092528;28;20007;-67
2021/03/28 11:32:01;;;;;;;;;;;14.20;99.90;;;;;;5092645;28;19924;-67
2021/03/28 11:34:31;;;;;;;;;;;14.10;99.90;;;;;;5091839;28;20297;-68
2021/03/28 11:36:59;;;;;;;;;;;14.10;99.90;;;;;;5092930;28;20346;-68
2021/03/28 11:39:26;;;;;;;;;;;14.10;99.90;;;;;;5057566;28;19929;-68
2021/03/28 11:41:57;;;;;;;;;;;14.00;99.90;;;;;;5032388;28;19926;-69
2021/03/28 11:44:41;;;;;;;;;;;13.90;99.90;;;;;;5032722;28;20023;-70
2021/03/28 11:47:28;;;;;;;;;;;13.80;99.90;;;;;;5033070;28;19925;-70
2021/03/28 11:50:02;;;;;;;;;;;13.60;99.90;;;;;;5032160;28;19956;-68
2021/03/28 11:52:32;;;;;;;;;;;13.30;99.90;;;;;;5031578;28;19952;-70
2021/03/28 11:55:03;;;;;;;;;;;13.50;99.90;;;;;;5031280;28;19925;-68
2021/03/28 11:57:31;;;;;;;;;;;13.70;99.90;;;;;;5031410;28;19991;-68
2021/03/28 12:00:11;;;;;;;;;;;13.90;99.90;;;;;;5031696;28;19925;-69
2021/03/28 12:02:37;;;;;;;;;;;13.80;99.90;;;;;;5031805;28;19937;-68
2021/03/28 12:05:21;;;;;;;;;;;13.90;99.90;;;;;;5031200;28;19925;-69
2021/03/28 12:08:03;;;;;;;;;;;13.90;99.90;;;;;;5021471;28;19925;-67
2021/03/28 12:10:33;;;;;;;;;;;14.00;99.90;;;;;;5031343;28;19936;-67
2021/03/28 12:13:29;;;;;;;;;;;13.70;99.90;;;;;;5031546;28;20322;-67
2021/03/28 12:15:57;;;;;;;;;;;13.80;99.90;;;;;;4969800;28;20343;-67
2021/03/28 12:18:33;;;;;;;;;;;13.90;99.90;;;;;;5017976;28;19925;-68
2021/03/28 12:21:18;;;;;;;;;;;14.00;99.90;;;;;;5035353;28;19931;-68
2021/03/28 12:23:56;;;;;;;;;;;14.00;99.90;;;;;;5035210;28;19979;-68
2021/03/28 12:26:23;;;;;;;;;;;14.00;99.90;;;;;;5035013;28;19925;-69
2021/03/28 12:28:51;;;;;;;;;;;13.90;99.90;;;;;;5035182;28;19925;-70
2021/03/28 12:31:26;;;;;;;;;;;14.10;99.90;;;;;;5035149;28;19952;-67
2021/03/28 12:33:55;;;;;;;;;;;14.20;99.90;;;;;;5034759;28;19948;-64
2021/03/28 12:36:22;;;;;;;;;;;14.00;99.90;;;;;;5034542;28;19978;-67
2021/03/28 12:38:52;;;;;;;;;;;13.70;99.90;;;;;;5035234;28;19948;-67
2021/03/28 12:41:29;;;;;;;;;;;13.70;99.90;;;;;;5035084;28;19983;-67
2021/03/28 12:43:57;;;;;;;;;;;13.80;99.90;;;;;;5034707;28;19925;-70
2021/03/28 12:46:42;;;;;;;;;;;13.90;99.90;;;;;;5034867;28;19925;-70
2021/03/28 12:49:16;;;;;;;;;;;14.00;99.90;;;;;;5034907;28;19925;-69
2021/03/28 12:51:43;;;;;;;;;;;14.00;99.90;;;;;;5034472;28;19944;-67
2021/03/28 12:54:15;;;;;;;;;;;13.80;99.90;;;;;;5034216;28;19932;-70
2021/03/28 12:56:47;;;;;;;;;;;14.00;99.90;;;;;;5034441;28;20275;-70
2021/03/28 12:59:27;;;;;;;;;;;14.00;99.90;;;;;;5034885;28;19925;-69
2021/03/28 13:01:53;;;;;;;;;;;13.70;99.90;;;;;;5034642;28;19928;-70
2021/03/28 13:04:21;;;;;;;;;;;13.70;99.90;;;;;;5034018;28;20279;-70
2021/03/28 13:06:48;;;;;;;;;;;13.60;99.90;;;;;;5034487;28;19925;-70
2021/03/28 13:09:36;;;;;;;;;;;13.50;99.90;;;;;;5034221;28;20298;-70
2021/03/28 13:36:13;;;;;;;5.37;2.17;;;;;;;;;;5046443;27;20314;-66
2021/03/28 13:38:43;;;;;;;7.90;2.63;;;;;;;;;;5067760;28;20262;-70
2021/03/28 13:41:24;;;;;;;9.70;2.40;;;;;;;;;;5069082;28;20229;-62
2021/03/28 13:43:51;;;;;;;5.23;2.20;;;;;;;;;;5087127;28;20645;-63
2021/03/28 13:46:19;;;;;;;7.07;2.50;;;;;;;;;;5088446;28;20209;-63
2021/03/28 13:48:47;;;;;;;6.40;2.40;;;;;;;;;;5088705;28;20695;-63
2021/03/28 13:51:19;;;;;;;6.40;2.30;;;;;;;;;;5089070;28;20285;-63
2021/03/28 13:53:58;;;;;;;6.80;2.60;;;;;;;;;;5088758;28;20284;-63
2021/03/28 13:56:30;;;;;;;7.87;2.30;;;;;;;;;;5088052;28;20302;-63
2021/03/28 13:59:01;;;;;;;6.63;2.20;;;;;;;;;;5078910;28;20240;-63
2021/03/28 14:01:30;;;;;;;9.43;2.40;;;;;;;;;;5068304;28;20224;-63
2021/03/28 14:03:57;;;;;;;5.07;2.20;;;;;;;;;;5068270;28;20201;-64
2021/03/28 14:06:28;;;;;;;5.80;1.93;;;;;;;;;;5067697;28;20289;-65
2021/03/28 14:08:57;;;;;;;8.27;2.27;;;;;;;;;;5067985;28;20583;-64
2021/03/28 14:11:25;;;;;;;6.80;1.83;;;;;;;;;;5068568;28;20563;-65
2021/03/28 14:14:00;;;;;;;6.87;2.37;;;;;;;;;;5067730;28;20224;-62
2021/03/28 14:16:27;;;;;;;5.93;2.43;;;;;;;;;;5067579;28;20235;-63
2021/03/28 14:18:57;;;;;;;8.67;2.70;;;;;;;;;;5068246;28;20201;-62
2021/03/28 14:21:27;;;;;;;7.77;2.33;;;;;;;;;;5068287;28;20311;-62
2021/03/28 14:23:55;;;;;;;6.07;1.80;;;;;;;;;;5068227;28;20212;-62
2021/03/28 14:26:27;;;;;;;5.60;1.90;;;;;;;;;;5067063;28;20210;-62
2021/03/28 14:28:54;;;;;;;5.33;1.97;;;;;;;;;;5068719;28;20212;-62
2021/03/28 14:31:28;;;;;;;6.03;1.90;;;;;;;;;;5068369;28;20221;-63
2021/03/28 14:34:19;;;;;;;8.40;2.13;;;;;;;;;;5068376;28;20220;-63
2021/03/28 14:37:08;;;;;;;8.23;2.00;;;;;;;;;;5066824;28;20209;-62
2021/03/28 14:39:48;;;;;;;9.60;2.53;;;;;;;;;;5067629;28;20209;-63
2021/03/28 14:42:16;;;;;;;10.20;2.33;;;;;;;;;;5067295;28;20247;-64
2021/03/28 14:45:03;;;;;;;5.23;1.67;;;;;;;;;;5066769;28;20233;-63
2021/03/28 14:47:36;;;;;;;8.43;2.13;;;;;;;;;;5054189;28;20280;-63
2021/03/28 14:50:06;;;;;;;4.93;2.13;;;;;;;;;;5054424;28;20791;-63
2021/03/28 14:52:44;;;;;;;9.30;2.30;;;;;;;;;;5054299;28;20230;-63
2021/03/28 14:55:35;;;;;;;9.33;2.23;;;;;;;;;;5053501;28;20221;-63
2021/03/28 14:58:16;;;;;;;8.03;2.33;;;;;;;;;;5039158;28;20271;-63
2021/03/28 15:00:45;;;;;;;6.13;2.10;;;;;;;;;;5051642;28;20206;-62
2021/03/28 15:03:30;;;;;;;5.63;2.23;;;;;;;;;;5054292;28;20247;-63
2021/03/28 15:06:06;;;;;;;9.10;3.67;;;;;;;;;;5052965;28;20572;-63
2021/03/28 15:08:37;;;;;;;7.77;2.40;;;;;;;;;;5054122;28;20212;-63
2021/03/28 15:11:06;;;;;;;5.30;1.80;;;;;;;;;;5053885;28;20236;-63
2021/03/28 15:13:41;;;;;;;8.37;2.37;;;;;;;;;;5053864;28;20206;-64
2021/03/28 15:16:09;;;;;;;7.93;2.40;;;;;;;;;;5053630;28;20215;-65
2021/03/28 15:18:44;;;;;;;4.17;2.23;;;;;;;;;;5053821;28;20216;-63
2021/03/28 15:21:13;;;;;;;7.10;2.40;;;;;;;;;;5053894;28;20263;-62
2021/03/28 15:23:47;;;;;;;6.97;2.27;;;;;;;;;;5053678;28;20281;-63
2021/03/28 15:26:38;;;;;;;7.90;2.40;;;;;;;;;;5053143;28;20219;-63
2021/03/28 15:29:06;;;;;;;7.60;2.50;;;;;;;;;;5038813;28;20213;-63
2021/03/28 15:31:42;;;;;;;9.93;2.60;;;;;;;;;;5072706;28;20236;-63
2021/03/28 15:34:14;;;;;;;8.10;2.50;;;;;;;;;;5073642;28;20239;-64
2021/03/28 15:36:45;;;;;;;7.00;2.20;;;;;;;;;;5072800;28;20220;-63
2021/03/28 15:39:24;;;;;;;7.27;2.33;;;;;;;;;;5073276;28;20205;-63
2021/03/28 15:41:57;;;;;;;8.80;1.90;;;;;;;;;;5073020;28;20604;-64
2021/03/28 15:44:36;;;;;;;4.97;2.00;;;;;;;;;;5073661;28;20185;-64
2021/03/28 15:47:09;;;;;;;8.30;2.97;;;;;;;;;;5073855;28;20208;-64
2021/03/28 15:50:01;;;;;;;4.87;2.20;;;;;;;;;;5073074;28;20208;-66